createdAt,value
2023-04-10T00:02:11.308Z,6.72
2023-04-10T00:04:38.205Z,6.70
2023-04-10T00:07:07.832Z,6.72
2023-04-10T00:09:34.479Z,6.74
2023-04-10T00:12:01.259Z,6.72
2023-04-10T00:14:27.875Z,6.65
2023-04-10T00:16:54.627Z,6.67
2023-04-10T00:19:21.317Z,6.58
2023-04-10T00:21:48.217Z,6.54
2023-04-10T00:24:14.898Z,6.46
2023-04-10T00:26:41.698Z,6.43
2023-04-10T00:29:08.373Z,6.44
2023-04-10T00:31:39.688Z,6.39
2023-04-10T00:34:07.089Z,6.35
2023-04-10T00:36:33.696Z,6.35
2023-04-10T00:39:00.369Z,6.37
2023-04-10T00:41:30.038Z,6.37
2023-04-10T00:43:57.662Z,6.38
2023-04-10T00:46:24.890Z,6.38
2023-04-10T00:48:52.685Z,6.36
2023-04-10T00:51:23.210Z,6.37
2023-04-10T00:53:51.840Z,6.36
2023-04-10T00:56:19.735Z,6.36
2023-04-10T00:58:47.204Z,6.31
2023-04-10T01:01:14.377Z,6.34
2023-04-10T01:03:42.922Z,6.28
2023-04-10T01:06:24.324Z,6.32
2023-04-10T01:09:00.769Z,6.34
2023-04-10T01:11:58.736Z,6.39
2023-04-10T01:14:40.694Z,6.30
2023-04-10T01:17:21.698Z,6.26
2023-04-10T01:20:22.217Z,6.24
2023-04-10T01:23:26.596Z,6.26
2023-04-10T01:26:03.379Z,6.28
2023-04-10T01:28:41.845Z,6.24
2023-04-10T01:31:14.035Z,6.20
2023-04-10T01:33:45.977Z,6.26
2023-04-10T01:36:21.592Z,6.24
2023-04-10T01:38:50.450Z,6.18
2023-04-10T01:41:19.623Z,6.19
2023-04-10T01:43:49.633Z,6.12
2023-04-10T01:46:19.166Z,6.11
2023-04-10T01:48:47.317Z,6.06
2023-04-10T01:51:16.207Z,5.96
2023-04-10T01:53:45.917Z,5.91
2023-04-10T01:56:13.540Z,5.93
2023-04-10T01:58:41.008Z,5.90
2023-04-10T02:01:08.104Z,5.83
2023-04-10T02:03:35.550Z,5.90
2023-04-10T02:06:18.723Z,5.84
2023-04-10T02:08:59.057Z,5.92
2023-04-10T02:11:44.289Z,5.90
2023-04-10T02:14:12.018Z,5.95
2023-04-10T02:16:39.560Z,5.94
2023-04-10T02:19:07.920Z,5.91
2023-04-10T02:21:35.561Z,5.86
2023-04-10T02:24:06.209Z,5.81
2023-04-10T02:26:45.432Z,5.80
2023-04-10T02:29:12.375Z,5.76
2023-04-10T02:31:40.745Z,5.70
2023-04-10T02:34:07.982Z,5.69
2023-04-10T02:36:36.766Z,5.69
2023-04-10T02:39:03.936Z,5.64
2023-04-10T02:41:31.026Z,5.64
2023-04-10T02:43:57.897Z,5.62
2023-04-10T02:46:24.853Z,5.60
2023-04-10T02:48:52.806Z,5.51
2023-04-10T02:51:21.320Z,5.44
2023-04-10T02:53:48.731Z,5.41
2023-04-10T02:56:15.462Z,5.37
2023-04-10T02:58:45.575Z,5.38
2023-04-10T03:01:12.791Z,5.25
2023-04-10T03:03:42.487Z,5.21
2023-04-10T03:06:10.651Z,5.20
2023-04-10T03:08:37.309Z,5.12
2023-04-10T03:11:04.018Z,5.14
2023-04-10T03:13:30.734Z,5.12
2023-04-10T03:15:57.350Z,5.08
2023-04-10T03:18:26.319Z,5.07
2023-04-10T03:20:53.005Z,4.97
2023-04-10T03:23:19.595Z,5.02
2023-04-10T03:25:51.353Z,5.01
2023-04-10T03:28:18.632Z,4.92
2023-04-10T03:30:45.346Z,4.97
2023-04-10T03:33:11.997Z,4.95
2023-04-10T03:35:38.722Z,4.89
2023-04-10T03:38:05.377Z,4.86
2023-04-10T03:40:34.151Z,4.79
2023-04-10T03:43:01.091Z,4.78
2023-04-10T03:45:27.799Z,4.81
2023-04-10T03:47:54.396Z,4.74
2023-04-10T03:50:21.390Z,4.74
2023-04-10T03:52:50.819Z,4.74
2023-04-10T03:55:20.250Z,4.72
2023-04-10T03:57:49.666Z,4.73
2023-04-10T04:00:19.384Z,4.75
2023-04-10T04:02:46.435Z,4.74
2023-04-10T04:05:13.412Z,4.69
2023-04-10T04:07:40.101Z,4.70
2023-04-10T04:10:09.434Z,4.76
2023-04-10T04:12:36.068Z,4.70
2023-04-10T04:15:02.820Z,4.82
2023-04-10T04:17:29.559Z,4.82
2023-04-10T04:19:56.218Z,4.86
2023-04-10T04:22:22.803Z,4.82
2023-04-10T04:24:49.511Z,4.86
2023-04-10T04:27:16.336Z,4.89
2023-04-10T04:29:42.914Z,4.83
2023-04-10T04:32:09.720Z,4.84
2023-04-10T04:34:36.366Z,4.91
2023-04-10T04:37:03.157Z,4.89
2023-04-10T04:39:29.822Z,4.89
2023-04-10T04:41:56.872Z,4.89
2023-04-10T04:44:23.557Z,4.95
2023-04-10T04:46:50.364Z,4.98
2023-04-10T04:49:17.008Z,4.97
2023-04-10T04:51:43.575Z,4.98
2023-04-10T04:54:10.262Z,5.02
2023-04-10T04:56:36.821Z,5.04
2023-04-10T04:59:04.051Z,5.06
2023-04-10T05:01:31.107Z,5.10
2023-04-10T05:03:57.805Z,5.15
2023-04-10T05:06:24.590Z,5.13
2023-04-10T05:08:53.122Z,5.19
2023-04-10T05:11:20.003Z,5.18
2023-04-10T05:13:46.550Z,5.22
2023-04-10T05:16:13.210Z,5.28
2023-04-10T05:18:39.880Z,5.32
2023-04-10T05:21:06.908Z,5.41
2023-04-10T05:23:33.538Z,5.46
2023-04-10T05:26:00.150Z,5.48
2023-04-10T05:28:26.876Z,5.50
2023-04-10T05:30:53.559Z,5.55
2023-04-10T05:33:20.454Z,5.55
2023-04-10T05:35:47.255Z,5.65
2023-04-10T05:38:13.890Z,5.62
2023-04-10T05:40:40.624Z,5.73
2023-04-10T05:43:07.210Z,5.71
2023-04-10T05:45:33.863Z,5.76
2023-04-10T05:48:00.522Z,5.78
2023-04-10T05:50:28.660Z,5.79
2023-04-10T05:52:56.575Z,5.82
2023-04-10T05:55:23.205Z,5.90
2023-04-10T05:57:51.606Z,6.01
2023-04-10T06:00:19.286Z,5.98
2023-04-10T06:02:46.092Z,5.94
2023-04-10T06:05:12.816Z,5.87
2023-04-10T06:07:39.479Z,5.94
2023-04-10T06:10:07.049Z,6.06
2023-04-10T06:12:33.671Z,6.07
2023-04-10T06:15:00.308Z,6.25
2023-04-10T06:17:28.415Z,6.30
2023-04-10T06:19:56.759Z,6.47
2023-04-10T06:22:23.433Z,6.54
2023-04-10T06:24:50.035Z,6.67
2023-04-10T06:27:16.726Z,6.79
2023-04-10T06:29:43.322Z,6.83
2023-04-10T06:32:10.015Z,7.00
2023-04-10T06:34:39.616Z,7.13
2023-04-10T06:37:06.289Z,7.32
2023-04-10T06:39:32.936Z,7.50
2023-04-10T06:41:59.751Z,7.66
2023-04-10T06:44:26.438Z,7.83
2023-04-10T06:46:53.160Z,7.98
2023-04-10T06:49:21.194Z,8.14
2023-04-10T06:51:48.566Z,8.32
2023-04-10T06:54:15.615Z,8.46
2023-04-10T06:56:42.234Z,8.61
2023-04-10T06:59:08.899Z,8.79
2023-04-10T07:01:35.972Z,8.93
2023-04-10T07:04:02.731Z,9.08
2023-04-10T07:06:32.557Z,9.24
2023-04-10T07:08:59.150Z,9.40
2023-04-10T07:11:25.965Z,9.54
2023-04-10T07:13:58.098Z,9.72
2023-04-10T07:16:25.408Z,9.92
2023-04-10T07:18:52.365Z,10.09
2023-04-10T07:21:19.249Z,10.25
2023-04-10T07:23:46.313Z,10.35
2023-04-10T07:26:13.173Z,10.45
2023-04-10T07:28:39.792Z,10.57
2023-04-10T07:31:08.014Z,10.71
2023-04-10T07:33:34.638Z,10.66
2023-04-10T07:36:07.062Z,10.79
2023-04-10T07:38:33.782Z,10.88
2023-04-10T07:41:00.527Z,10.94
2023-04-10T07:43:27.305Z,11.05
2023-04-10T07:45:53.988Z,11.13
2023-04-10T07:48:23.027Z,11.30
2023-04-10T07:50:49.724Z,11.48
2023-04-10T07:53:16.500Z,11.62
2023-04-10T07:55:45.156Z,11.68
2023-04-10T07:58:11.789Z,11.77
2023-04-10T08:00:38.401Z,11.87
2023-04-10T08:03:06.505Z,11.99
2023-04-10T08:05:33.885Z,11.93
2023-04-10T08:08:00.575Z,11.98
2023-04-10T08:10:27.198Z,12.03
2023-04-10T08:12:54.044Z,12.04
2023-04-10T08:15:21.109Z,12.11
2023-04-10T08:17:47.808Z,12.22
2023-04-10T08:20:14.503Z,12.28
2023-04-10T08:22:41.086Z,12.35
2023-04-10T08:25:07.981Z,12.32
2023-04-10T08:27:34.926Z,12.34
2023-04-10T08:30:01.625Z,12.38
2023-04-10T08:32:28.406Z,12.46
2023-04-10T08:34:55.261Z,12.46
2023-04-10T08:37:22.038Z,12.48
2023-04-10T08:39:48.905Z,12.48
2023-04-10T08:42:15.673Z,12.54
2023-04-10T08:44:42.366Z,12.56
2023-04-10T08:47:09.970Z,12.58
2023-04-10T08:49:53.825Z,12.41
2023-04-10T08:52:26.289Z,12.44
2023-04-10T08:54:57.925Z,12.49
2023-04-10T08:57:30.359Z,12.50
2023-04-10T08:59:59.581Z,12.61
2023-04-10T09:02:29.551Z,12.64
2023-04-10T09:05:00.595Z,12.55
2023-04-10T09:07:27.360Z,12.46
2023-04-10T09:09:53.942Z,12.55
2023-04-10T09:12:20.672Z,12.51
2023-04-10T09:14:49.784Z,12.55
2023-04-10T09:17:24.564Z,12.52
2023-04-10T09:19:55.269Z,12.60
2023-04-10T09:22:36.493Z,12.67
2023-04-10T09:25:04.768Z,12.72
2023-04-10T09:27:36.115Z,12.80
2023-04-10T09:30:03.873Z,12.77
2023-04-10T09:32:38.265Z,12.76
2023-04-10T09:35:06.016Z,12.87
2023-04-10T09:37:38.987Z,12.98
2023-04-10T09:40:06.475Z,12.98
2023-04-10T09:42:37.619Z,12.88
2023-04-10T09:45:05.476Z,13.01
2023-04-10T09:47:33.269Z,13.02
2023-04-10T09:50:01.109Z,13.07
2023-04-10T09:52:32.759Z,13.09
2023-04-10T09:55:04.808Z,13.13
2023-04-10T09:57:33.461Z,13.08
2023-04-10T10:00:07.026Z,13.10
2023-04-10T10:02:39.234Z,13.16
2023-04-10T10:05:07.426Z,13.23
2023-04-10T10:07:35.058Z,13.31
2023-04-10T10:10:03.347Z,13.29
2023-04-10T10:12:35.688Z,13.32
2023-04-10T10:15:09.201Z,13.36
2023-04-10T10:17:42.730Z,13.46
2023-04-10T10:20:11.824Z,13.44
2023-04-10T10:22:43.221Z,13.55
2023-04-10T10:25:10.637Z,13.47
2023-04-10T10:27:38.836Z,13.48
2023-04-10T10:30:25.295Z,13.51
2023-04-10T10:32:56.364Z,13.63
2023-04-10T10:35:25.993Z,13.68
2023-04-10T10:37:55.263Z,13.67
2023-04-10T10:40:33.892Z,13.81
2023-04-10T10:43:16.709Z,13.90
2023-04-10T10:46:04.789Z,13.99
2023-04-10T10:48:31.530Z,14.00
2023-04-10T10:51:00.573Z,14.01
2023-04-10T10:53:34.411Z,14.06
2023-04-10T10:56:21.111Z,14.14
2023-04-10T10:58:51.190Z,14.11
2023-04-10T11:01:18.848Z,14.12
2023-04-10T11:03:46.106Z,14.17
2023-04-10T11:06:17.099Z,14.24
2023-04-10T11:08:47.690Z,14.21
2023-04-10T11:11:19.043Z,14.26
2023-04-10T11:13:57.524Z,14.31
2023-04-10T11:16:29.876Z,14.33
2023-04-10T11:19:14.201Z,14.17
2023-04-10T11:22:08.341Z,14.15
2023-04-10T11:24:56.313Z,14.10
2023-04-10T11:27:47.793Z,14.16
2023-04-10T11:30:33.826Z,14.18
2023-04-10T11:33:01.747Z,14.11
2023-04-10T11:35:29.136Z,14.06
2023-04-10T11:38:09.323Z,14.02
2023-04-10T11:40:35.980Z,13.96
2023-04-10T11:43:22.956Z,14.02
2023-04-10T11:45:49.720Z,13.91
2023-04-10T11:48:17.485Z,14.00
2023-04-10T11:50:47.038Z,13.93
2023-04-10T11:53:21.684Z,14.03
2023-04-10T11:55:48.554Z,14.06
2023-04-10T11:58:25.633Z,13.93
2023-04-10T12:01:02.905Z,13.97
2023-04-10T12:03:46.708Z,13.97
2023-04-10T12:06:14.958Z,13.88
2023-04-10T12:08:42.759Z,13.96
2023-04-10T12:11:10.874Z,13.98
2023-04-10T12:13:38.078Z,13.82
2023-04-10T12:16:09.813Z,13.87
2023-04-10T12:18:36.985Z,13.91
2023-04-10T12:21:05.531Z,13.90
2023-04-10T12:23:36.308Z,13.83
2023-04-10T12:26:17.552Z,13.89
2023-04-10T12:29:08.058Z,13.83
2023-04-10T12:31:36.496Z,13.90
2023-04-10T12:34:05.516Z,13.98
2023-04-10T12:36:34.329Z,14.02
2023-04-10T12:39:03.268Z,13.98
2023-04-10T12:41:32.221Z,14.01
2023-04-10T12:44:13.006Z,14.09
2023-04-10T12:46:41.600Z,14.07
2023-04-10T12:49:21.419Z,14.11
2023-04-10T12:51:50.394Z,14.18
2023-04-10T12:54:37.399Z,14.16
2023-04-10T12:57:04.420Z,14.11
2023-04-10T12:59:31.685Z,14.12
2023-04-10T13:01:58.757Z,14.13
2023-04-10T13:04:25.699Z,14.13
2023-04-10T13:06:53.119Z,14.15
2023-04-10T13:09:20.005Z,14.11
2023-04-10T13:11:54.229Z,14.13
2023-04-10T13:14:22.725Z,14.12
2023-04-10T13:16:49.327Z,14.06
2023-04-10T13:19:16.060Z,14.06
2023-04-10T13:21:42.690Z,14.12
2023-04-10T13:24:12.312Z,14.15
2023-04-10T13:26:39.820Z,14.14
2023-04-10T13:29:06.492Z,14.13
2023-04-10T13:31:33.156Z,14.16
2023-04-10T13:33:59.734Z,14.20
2023-04-10T13:36:26.970Z,14.21
2023-04-10T13:38:53.885Z,14.24
2023-04-10T13:41:21.029Z,14.30
2023-04-10T13:43:47.673Z,14.35
2023-04-10T13:46:14.313Z,14.36
2023-04-10T13:48:41.631Z,14.44
2023-04-10T13:51:08.986Z,14.46
2023-04-10T13:53:35.737Z,14.50
2023-04-10T13:56:04.314Z,14.53
2023-04-10T13:58:34.274Z,14.53
2023-04-10T14:01:01.659Z,14.56
2023-04-10T14:03:28.420Z,14.65
2023-04-10T14:05:55.116Z,14.67
2023-04-10T14:08:21.748Z,14.73
2023-04-10T14:10:51.573Z,14.73
2023-04-10T14:13:18.836Z,14.74
2023-04-10T14:15:45.671Z,14.73
2023-04-10T14:18:12.576Z,14.77
2023-04-10T14:20:42.482Z,14.75
2023-04-10T14:23:10.026Z,14.74
2023-04-10T14:25:36.604Z,14.78
2023-04-10T14:28:03.237Z,14.81
2023-04-10T14:30:31.092Z,14.81
2023-04-10T14:32:57.951Z,14.81
2023-04-10T14:35:24.781Z,14.87
2023-04-10T14:37:51.499Z,14.81
2023-04-10T14:40:18.129Z,14.79
2023-04-10T14:42:46.022Z,14.80
2023-04-10T14:45:12.714Z,14.82
2023-04-10T14:47:39.405Z,14.90
2023-04-10T14:50:07.000Z,14.90
2023-04-10T14:52:33.684Z,14.80
2023-04-10T14:55:00.404Z,14.86
2023-04-10T14:57:27.174Z,14.80
2023-04-10T14:59:53.792Z,14.78
2023-04-10T15:02:21.005Z,14.85
2023-04-10T15:04:47.811Z,14.80
2023-04-10T15:07:14.543Z,14.81
2023-04-10T15:09:41.268Z,14.81
2023-04-10T15:12:08.031Z,14.85
2023-04-10T15:14:37.833Z,14.86
2023-04-10T15:17:04.598Z,14.82
2023-04-10T15:19:31.388Z,14.88
2023-04-10T15:22:00.641Z,14.85
2023-04-10T15:24:29.181Z,14.88
2023-04-10T15:26:57.873Z,14.86
2023-04-10T15:29:24.512Z,14.92
2023-04-10T15:31:51.402Z,14.90
2023-04-10T15:34:18.034Z,14.87
2023-04-10T15:36:46.707Z,14.92
2023-04-10T15:39:13.419Z,14.98
2023-04-10T15:41:40.182Z,14.98
2023-04-10T15:44:06.883Z,14.98
2023-04-10T15:46:34.284Z,14.96
2023-04-10T15:49:01.232Z,14.93
2023-04-10T15:51:27.854Z,14.89
2023-04-10T15:53:54.908Z,14.89
2023-04-10T15:56:21.871Z,14.94
2023-04-10T15:58:48.540Z,14.84
2023-04-10T16:01:17.624Z,14.80
2023-04-10T16:03:45.394Z,14.81
2023-04-10T16:06:12.193Z,14.82
2023-04-10T16:08:41.140Z,14.80
2023-04-10T16:11:07.778Z,14.72
2023-04-10T16:13:34.456Z,14.78
2023-04-10T16:16:01.497Z,14.70
2023-04-10T16:18:28.306Z,14.64
2023-04-10T16:20:54.921Z,14.62
2023-04-10T16:23:21.618Z,14.65
2023-04-10T16:25:48.397Z,14.55
2023-04-10T16:28:15.128Z,14.51
2023-04-10T16:30:41.791Z,14.55
2023-04-10T16:33:11.448Z,14.53
2023-04-10T16:35:38.239Z,14.51
2023-04-10T16:38:05.393Z,14.50
2023-04-10T16:40:35.014Z,14.47
2023-04-10T16:43:02.080Z,14.43
2023-04-10T16:45:28.771Z,14.37
2023-04-10T16:47:55.615Z,14.26
2023-04-10T16:50:22.395Z,14.30
2023-04-10T16:52:49.029Z,14.30
2023-04-10T16:55:15.911Z,14.30
2023-04-10T16:57:43.130Z,14.25
2023-04-10T17:00:11.392Z,14.25
2023-04-10T17:02:38.209Z,14.27
2023-04-10T17:05:05.116Z,14.16
2023-04-10T17:07:31.808Z,14.10
2023-04-10T17:09:59.229Z,14.06
2023-04-10T17:12:26.147Z,14.04
2023-04-10T17:14:52.831Z,13.97
2023-04-10T17:17:19.573Z,13.92
2023-04-10T17:19:46.316Z,13.89
2023-04-10T17:22:20.710Z,13.91
2023-04-10T17:24:47.302Z,13.77
2023-04-10T17:27:13.979Z,13.77
2023-04-10T17:29:44.553Z,13.77
2023-04-10T17:32:11.292Z,13.70
2023-04-10T17:34:37.907Z,13.68
2023-04-10T17:37:04.616Z,13.64
2023-04-10T17:39:31.248Z,13.64
2023-04-10T17:41:57.906Z,13.62
2023-04-10T17:44:24.589Z,13.57
2023-04-10T17:46:53.593Z,13.54
2023-04-10T17:49:22.037Z,13.51
2023-04-10T17:51:49.232Z,13.45
2023-04-10T17:54:16.153Z,13.43
2023-04-10T17:56:42.998Z,13.35
2023-04-10T17:59:10.693Z,13.35
2023-04-10T18:01:39.496Z,13.30
2023-04-10T18:04:07.128Z,13.23
2023-04-10T18:06:33.902Z,13.21
2023-04-10T18:09:00.748Z,13.15
2023-04-10T18:11:27.454Z,13.15
2023-04-10T18:13:54.212Z,13.10
2023-04-10T18:16:20.836Z,13.09
2023-04-10T18:18:47.527Z,13.07
2023-04-10T18:21:14.271Z,13.04
2023-04-10T18:23:42.468Z,13.00
2023-04-10T18:26:12.136Z,12.92
2023-04-10T18:28:39.642Z,12.86
2023-04-10T18:31:06.513Z,12.84
2023-04-10T18:33:33.291Z,12.82
2023-04-10T18:36:02.035Z,12.70
2023-04-10T18:38:28.828Z,12.67
2023-04-10T18:40:56.951Z,12.62
2023-04-10T18:43:27.686Z,12.62
2023-04-10T18:45:55.138Z,12.60
2023-04-10T18:48:22.082Z,12.60
2023-04-10T18:50:54.055Z,12.49
2023-04-10T18:53:21.723Z,12.45
2023-04-10T18:55:52.853Z,12.42
2023-04-10T18:58:21.281Z,12.43
2023-04-10T19:00:50.383Z,12.43
2023-04-10T19:03:17.243Z,12.43
2023-04-10T19:05:44.516Z,12.45
2023-04-10T19:08:14.609Z,12.43
2023-04-10T19:10:42.792Z,12.38
2023-04-10T19:13:11.939Z,12.33
2023-04-10T19:15:46.105Z,12.29
2023-04-10T19:18:14.822Z,12.24
2023-04-10T19:20:51.230Z,12.22
2023-04-10T19:23:20.621Z,12.15
2023-04-10T19:25:51.160Z,12.11
2023-04-10T19:28:17.801Z,12.12
2023-04-10T19:30:44.519Z,12.09
2023-04-10T19:33:11.201Z,12.05
2023-04-10T19:35:37.874Z,12.01
2023-04-10T19:38:04.742Z,11.96
2023-04-10T19:40:32.075Z,11.93
2023-04-10T19:43:02.018Z,11.88
2023-04-10T19:45:29.536Z,11.84
2023-04-10T19:47:57.988Z,11.85
2023-04-10T19:50:24.863Z,11.82
2023-04-10T19:52:51.716Z,11.74
2023-04-10T19:55:19.096Z,11.73
2023-04-10T19:57:46.009Z,11.69
2023-04-10T20:00:15.252Z,11.63
2023-04-10T20:02:42.416Z,11.60
2023-04-10T20:05:09.458Z,11.51
2023-04-10T20:07:36.282Z,11.47
2023-04-10T20:10:04.375Z,11.39
2023-04-10T20:12:34.539Z,11.38
2023-04-10T20:15:02.441Z,11.35
2023-04-10T20:17:29.896Z,11.43
2023-04-10T20:19:56.936Z,11.43
2023-04-10T20:22:23.654Z,11.39
2023-04-10T20:24:50.257Z,11.39
2023-04-10T20:27:16.997Z,11.30
2023-04-10T20:29:43.650Z,11.20
2023-04-10T20:32:10.318Z,11.12
2023-04-10T20:34:37.313Z,11.10
2023-04-10T20:37:06.970Z,11.06
2023-04-10T20:39:33.839Z,10.99
2023-04-10T20:42:00.459Z,10.86
2023-04-10T20:44:27.093Z,10.87
2023-04-10T20:46:53.869Z,10.84
2023-04-10T20:49:20.525Z,10.79
2023-04-10T20:51:47.272Z,10.85
2023-04-10T20:54:13.908Z,10.78
2023-04-10T20:56:43.835Z,10.78
2023-04-10T20:59:11.406Z,10.65
2023-04-10T21:01:38.588Z,10.62
2023-04-10T21:04:05.927Z,10.55
2023-04-10T21:06:35.900Z,10.53
2023-04-10T21:09:02.576Z,10.55
2023-04-10T21:11:29.277Z,10.53
2023-04-10T21:13:55.949Z,10.43
2023-04-10T21:16:22.649Z,10.33
2023-04-10T21:18:49.367Z,10.22
2023-04-10T21:21:16.070Z,10.19
2023-04-10T21:23:42.691Z,10.17
2023-04-10T21:26:09.305Z,10.14
2023-04-10T21:28:36.333Z,10.11
2023-04-10T21:31:02.997Z,10.08
2023-04-10T21:33:29.627Z,9.98
2023-04-10T21:35:56.396Z,9.97
2023-04-10T21:38:24.030Z,10.00
2023-04-10T21:40:52.178Z,9.98
2023-04-10T21:43:19.767Z,9.90
2023-04-10T21:45:46.666Z,9.89
2023-04-10T21:48:13.386Z,9.85
2023-04-10T21:50:40.451Z,9.83
2023-04-10T21:53:07.048Z,9.79
2023-04-10T21:55:33.627Z,9.76
2023-04-10T21:58:00.256Z,9.73
2023-04-10T22:00:28.554Z,9.74
2023-04-10T22:02:55.397Z,9.68
2023-04-10T22:05:24.300Z,9.62
2023-04-10T22:07:51.665Z,9.62
2023-04-10T22:10:20.642Z,9.58
2023-04-10T22:12:48.800Z,9.57
2023-04-10T22:15:16.347Z,9.61
2023-04-10T22:17:43.320Z,9.55
2023-04-10T22:20:10.771Z,9.47
2023-04-10T22:22:37.496Z,9.52
2023-04-10T22:25:04.374Z,9.47
2023-04-10T22:27:30.968Z,9.44
2023-04-10T22:30:03.437Z,9.42
2023-04-10T22:32:31.071Z,9.39
2023-04-10T22:34:59.336Z,9.31
2023-04-10T22:37:26.426Z,9.29
2023-04-10T22:39:53.141Z,9.24
2023-04-10T22:42:19.775Z,9.26
2023-04-10T22:44:46.691Z,9.20
2023-04-10T22:47:13.345Z,9.18
2023-04-10T22:49:40.063Z,9.11
2023-04-10T22:52:07.237Z,9.10
2023-04-10T22:54:33.840Z,9.10
2023-04-10T22:57:00.820Z,9.10
2023-04-10T22:59:27.480Z,9.12
2023-04-10T23:01:54.185Z,9.09
2023-04-10T23:04:21.058Z,9.03
2023-04-10T23:06:47.642Z,9.04
2023-04-10T23:09:14.355Z,9.02
2023-04-10T23:11:41.005Z,8.98
2023-04-10T23:14:07.744Z,8.97
2023-04-10T23:16:34.442Z,8.97
2023-04-10T23:19:01.049Z,9.03
2023-04-10T23:21:27.739Z,8.97
2023-04-10T23:23:54.393Z,8.99
2023-04-10T23:26:21.215Z,9.02
2023-04-10T23:28:47.846Z,8.91
2023-04-10T23:31:14.887Z,8.85
2023-04-10T23:33:41.749Z,8.82
2023-04-10T23:36:08.710Z,8.79
2023-04-10T23:38:35.423Z,8.80
2023-04-10T23:41:03.113Z,8.78
2023-04-10T23:43:29.842Z,8.78
2023-04-10T23:45:59.857Z,8.75
2023-04-10T23:48:26.522Z,8.74
2023-04-10T23:51:02.677Z,8.72
2023-04-10T23:53:29.276Z,8.70
2023-04-10T23:55:56.046Z,8.72
2023-04-10T23:58:22.666Z,8.73
